createdAt,value
2018-12-31T00:00:08.878Z,1025.42
2018-12-31T00:01:08.684Z,1025.36
2018-12-31T00:02:08.643Z,1025.38
2018-12-31T00:03:08.645Z,1025.34
2018-12-31T00:04:08.612Z,1025.28
2018-12-31T00:05:08.625Z,1025.27
2018-12-31T00:06:08.597Z,1025.25
2018-12-31T00:07:09.503Z,1025.25
2018-12-31T00:08:08.576Z,1025.25
2018-12-31T00:09:08.561Z,1025.28
2018-12-31T00:10:08.578Z,1025.25
2018-12-31T00:11:08.543Z,1025.28
2018-12-31T00:12:08.533Z,1025.27
2018-12-31T00:13:08.521Z,1025.29
2018-12-31T00:14:08.505Z,1025.25
2018-12-31T00:15:08.522Z,1025.28
2018-12-31T00:16:13.679Z,1025.31
2018-12-31T00:17:08.540Z,1025.42
2018-12-31T00:18:08.466Z,1025.40
2018-12-31T00:20:12.215Z,1025.47
2018-12-31T00:21:08.433Z,1025.51
2018-12-31T00:22:08.431Z,1025.54
2018-12-31T00:23:08.445Z,1025.54
2018-12-31T00:24:08.416Z,1025.43
2018-12-31T00:25:08.411Z,1025.43
2018-12-31T00:26:08.383Z,1025.54
2018-12-31T00:27:08.378Z,1025.55
2018-12-31T00:28:08.362Z,1025.58
2018-12-31T00:29:08.354Z,1025.53
2018-12-31T00:30:08.401Z,1025.51
2018-12-31T00:31:08.336Z,1025.54
2018-12-31T00:32:08.319Z,1025.47
2018-12-31T00:33:08.307Z,1025.49
2018-12-31T00:34:08.297Z,1025.49
2018-12-31T00:35:08.306Z,1025.53
2018-12-31T00:36:08.283Z,1025.49
2018-12-31T00:37:08.261Z,1025.48
2018-12-31T00:38:08.251Z,1025.46
2018-12-31T00:39:08.244Z,1025.51
2018-12-31T00:40:08.263Z,1025.54
2018-12-31T00:41:08.225Z,1025.52
2018-12-31T00:42:08.230Z,1025.55
2018-12-31T00:43:08.197Z,1025.56
2018-12-31T00:44:08.195Z,1025.52
2018-12-31T00:45:08.212Z,1025.52
2018-12-31T00:46:08.165Z,1025.59
2018-12-31T00:47:08.160Z,1025.55
2018-12-31T00:48:08.148Z,1025.43
2018-12-31T00:49:08.140Z,1025.38
2018-12-31T00:50:08.126Z,1025.41
2018-12-31T00:51:08.139Z,1025.48
2018-12-31T00:52:08.111Z,1025.45
2018-12-31T00:53:08.107Z,1025.52
2018-12-31T00:54:08.091Z,1025.53
2018-12-31T00:55:08.070Z,1025.52
2018-12-31T00:56:08.077Z,1025.54
2018-12-31T00:57:08.054Z,1025.55
2018-12-31T00:58:08.042Z,1025.50
2018-12-31T00:59:08.035Z,1025.52
2018-12-31T01:00:08.019Z,1025.50
2018-12-31T01:01:08.032Z,1025.51
2018-12-31T01:02:08.005Z,1025.56
2018-12-31T01:03:07.987Z,1025.50
2018-12-31T01:04:07.988Z,1025.54
2018-12-31T01:05:07.977Z,1025.52
2018-12-31T01:06:07.986Z,1025.52
2018-12-31T01:07:07.945Z,1025.51
2018-12-31T01:08:07.938Z,1025.51
2018-12-31T01:09:07.922Z,1025.55
2018-12-31T01:10:07.915Z,1025.55
2018-12-31T01:11:07.929Z,1025.54
2018-12-31T01:12:07.889Z,1025.61
2018-12-31T01:13:07.878Z,1025.61
2018-12-31T01:14:07.885Z,1025.54
2018-12-31T01:15:07.862Z,1025.57
2018-12-31T01:16:07.870Z,1025.57
2018-12-31T01:17:07.842Z,1025.53
2018-12-31T01:18:07.826Z,1025.54
2018-12-31T01:19:07.823Z,1025.53
2018-12-31T01:20:07.814Z,1025.59
2018-12-31T01:21:07.835Z,1025.62
2018-12-31T01:22:07.791Z,1025.62
2018-12-31T01:23:07.783Z,1025.69
2018-12-31T01:24:07.767Z,1025.64
2018-12-31T01:25:07.760Z,1025.69
2018-12-31T01:26:07.772Z,1025.72
2018-12-31T01:27:07.742Z,1025.75
2018-12-31T01:28:07.742Z,1025.78
2018-12-31T01:29:07.713Z,1025.76
2018-12-31T01:30:07.703Z,1025.80
2018-12-31T01:31:07.727Z,1025.75
2018-12-31T01:32:07.689Z,1025.69
2018-12-31T01:33:07.672Z,1025.74
2018-12-31T01:34:07.678Z,1025.73
2018-12-31T01:35:07.648Z,1025.78
2018-12-31T01:36:08.067Z,1025.81
2018-12-31T01:37:07.642Z,1025.78
2018-12-31T01:38:07.619Z,1025.79
2018-12-31T01:39:07.616Z,1025.84
2018-12-31T01:40:07.597Z,1025.83
2018-12-31T01:41:07.670Z,1025.84
2018-12-31T01:42:07.977Z,1025.81
2018-12-31T01:43:07.690Z,1025.88
2018-12-31T01:44:07.558Z,1025.90
2018-12-31T01:45:07.548Z,1025.91
2018-12-31T01:46:07.534Z,1025.89
2018-12-31T01:47:07.582Z,1025.93
2018-12-31T01:48:07.540Z,1025.98
2018-12-31T01:49:07.502Z,1025.96
2018-12-31T01:50:07.492Z,1026.00
2018-12-31T01:51:11.203Z,1025.98
2018-12-31T01:52:07.492Z,1026.03
2018-12-31T01:53:07.458Z,1026.01
2018-12-31T01:54:07.470Z,1026.03
2018-12-31T01:55:07.434Z,1026.05
2018-12-31T01:56:07.429Z,1026.08
2018-12-31T01:57:07.436Z,1026.02
2018-12-31T01:58:07.402Z,1026.01
2018-12-31T01:59:07.395Z,1026.00
2018-12-31T02:00:07.390Z,1026.04
2018-12-31T02:01:07.376Z,1026.04
2018-12-31T02:02:07.380Z,1026.07
2018-12-31T02:03:07.355Z,1026.04
2018-12-31T02:04:07.342Z,1026.09
2018-12-31T02:05:07.334Z,1026.08
2018-12-31T02:06:07.317Z,1026.07
2018-12-31T02:07:07.331Z,1026.05
2018-12-31T02:08:07.304Z,1025.98
2018-12-31T02:09:07.283Z,1025.97
2018-12-31T02:10:07.274Z,1026.00
2018-12-31T02:11:07.262Z,1026.04
2018-12-31T02:12:07.285Z,1026.09
2018-12-31T02:13:07.248Z,1026.00
2018-12-31T02:14:07.249Z,1025.99
2018-12-31T02:15:07.225Z,1026.02
2018-12-31T02:16:07.217Z,1026.07
2018-12-31T02:17:07.234Z,1026.11
2018-12-31T02:18:07.192Z,1026.09
2018-12-31T02:19:07.194Z,1026.14
2018-12-31T02:20:07.178Z,1026.06
2018-12-31T02:21:07.160Z,1026.07
2018-12-31T02:22:07.152Z,1026.11
2018-12-31T02:23:07.161Z,1026.19
2018-12-31T02:24:07.126Z,1026.18
2018-12-31T02:25:07.126Z,1026.23
2018-12-31T02:26:07.116Z,1026.22
2018-12-31T02:27:07.095Z,1026.22
2018-12-31T02:28:07.099Z,1026.21
2018-12-31T02:29:07.078Z,1026.17
2018-12-31T02:30:07.069Z,1026.15
2018-12-31T02:31:07.064Z,1026.15
2018-12-31T02:32:07.051Z,1026.15
2018-12-31T02:33:07.068Z,1026.12
2018-12-31T02:34:07.023Z,1026.16
2018-12-31T02:35:07.027Z,1026.17
2018-12-31T02:36:07.007Z,1026.15
2018-12-31T02:37:07.009Z,1026.20
2018-12-31T02:38:07.014Z,1026.20
2018-12-31T02:39:06.968Z,1026.18
2018-12-31T02:40:06.959Z,1026.17
2018-12-31T02:41:06.956Z,1026.07
2018-12-31T02:42:06.937Z,1026.13
2018-12-31T02:43:06.949Z,1026.14
2018-12-31T02:44:06.917Z,1026.15
2018-12-31T02:45:06.917Z,1026.15
2018-12-31T02:46:06.890Z,1026.16
2018-12-31T02:47:06.888Z,1026.20
2018-12-31T02:48:06.919Z,1026.13
2018-12-31T02:49:06.870Z,1026.08
2018-12-31T02:50:06.859Z,1026.07
2018-12-31T02:51:06.840Z,1026.09
2018-12-31T02:52:06.830Z,1026.08
2018-12-31T02:53:06.822Z,1026.12
2018-12-31T02:54:06.844Z,1026.10
2018-12-31T02:55:06.799Z,1026.12
2018-12-31T02:56:06.795Z,1026.14
2018-12-31T02:57:06.778Z,1026.13
2018-12-31T02:58:06.795Z,1026.14
2018-12-31T02:59:06.790Z,1026.08
2018-12-31T03:00:06.758Z,1026.07
2018-12-31T03:01:06.741Z,1025.99
2018-12-31T03:02:06.726Z,1026.02
2018-12-31T03:03:06.718Z,1025.98
2018-12-31T03:04:06.731Z,1026.02
2018-12-31T03:05:06.704Z,1025.93
2018-12-31T03:06:06.691Z,1025.95
2018-12-31T03:07:06.676Z,1025.99
2018-12-31T03:08:06.666Z,1025.95
2018-12-31T03:09:06.668Z,1026.02
2018-12-31T03:10:06.645Z,1026.01
2018-12-31T03:11:06.876Z,1026.07
2018-12-31T03:12:06.631Z,1026.15
2018-12-31T03:13:06.610Z,1026.12
2018-12-31T03:14:06.615Z,1026.10
2018-12-31T03:15:06.591Z,1026.17
2018-12-31T03:16:06.582Z,1026.20
2018-12-31T03:17:06.570Z,1026.14
2018-12-31T03:18:06.563Z,1026.10
2018-12-31T03:19:06.569Z,1026.09
2018-12-31T03:20:06.537Z,1026.09
2018-12-31T03:21:06.534Z,1026.11
2018-12-31T03:22:06.598Z,1026.11
2018-12-31T03:23:06.509Z,1026.10
2018-12-31T03:24:06.519Z,1026.10
2018-12-31T03:25:06.479Z,1026.13
2018-12-31T03:26:06.468Z,1026.16
2018-12-31T03:27:06.461Z,1026.14
2018-12-31T03:28:06.448Z,1026.17
2018-12-31T03:29:06.467Z,1026.12
2018-12-31T03:30:06.436Z,1026.15
2018-12-31T03:31:06.427Z,1026.08
2018-12-31T03:32:06.415Z,1026.12
2018-12-31T03:33:06.409Z,1026.13
2018-12-31T03:34:06.388Z,1026.13
2018-12-31T03:35:06.447Z,1026.13
2018-12-31T03:36:06.431Z,1026.09
2018-12-31T03:37:06.357Z,1026.14
2018-12-31T03:38:06.350Z,1026.20
2018-12-31T03:39:06.355Z,1026.17
2018-12-31T03:40:06.339Z,1026.22
2018-12-31T03:41:06.317Z,1026.21
2018-12-31T03:42:06.304Z,1026.20
2018-12-31T03:43:06.296Z,1026.23
2018-12-31T03:44:06.303Z,1026.19
2018-12-31T03:45:06.290Z,1026.17
2018-12-31T03:46:06.266Z,1026.16
2018-12-31T03:47:06.251Z,1026.10
2018-12-31T03:48:06.241Z,1026.09
2018-12-31T03:49:06.231Z,1026.09
2018-12-31T03:50:06.283Z,1026.14
2018-12-31T03:51:06.213Z,1026.16
2018-12-31T03:52:06.197Z,1026.18
2018-12-31T03:53:06.197Z,1026.25
2018-12-31T03:54:06.176Z,1026.19
2018-12-31T03:55:06.182Z,1026.22
2018-12-31T03:56:06.156Z,1026.18
2018-12-31T03:57:06.142Z,1026.22
2018-12-31T03:58:06.138Z,1026.19
2018-12-31T03:59:06.119Z,1026.23
2018-12-31T04:00:06.128Z,1026.20
2018-12-31T04:01:06.101Z,1026.25
2018-12-31T04:02:06.099Z,1026.21
2018-12-31T04:03:06.080Z,1026.20
2018-12-31T04:04:06.073Z,1026.16
2018-12-31T04:05:06.079Z,1026.13
2018-12-31T04:06:06.055Z,1026.05
2018-12-31T04:07:06.040Z,1026.04
2018-12-31T04:08:06.048Z,1026.07
2018-12-31T04:09:06.019Z,1026.10
2018-12-31T04:10:06.030Z,1026.22
2018-12-31T04:11:05.995Z,1026.17
2018-12-31T04:12:05.982Z,1026.20
2018-12-31T04:13:05.976Z,1026.15
2018-12-31T04:14:05.962Z,1026.17
2018-12-31T04:15:05.974Z,1026.13
2018-12-31T04:16:05.945Z,1026.15
2018-12-31T04:17:05.932Z,1026.22
2018-12-31T04:18:05.923Z,1026.18
2018-12-31T04:19:05.905Z,1026.21
2018-12-31T04:20:05.926Z,1026.18
2018-12-31T04:21:05.892Z,1026.19
2018-12-31T04:22:05.879Z,1026.22
2018-12-31T04:23:05.869Z,1026.20
2018-12-31T04:24:05.864Z,1026.22
2018-12-31T04:25:05.909Z,1026.19
2018-12-31T04:26:05.835Z,1026.19
2018-12-31T04:27:05.835Z,1026.15
2018-12-31T04:28:05.817Z,1026.15
2018-12-31T04:29:05.802Z,1026.13
2018-12-31T04:30:05.830Z,1026.14
2018-12-31T04:31:05.794Z,1026.15
2018-12-31T04:32:05.775Z,1026.18
2018-12-31T04:33:05.769Z,1026.26
2018-12-31T04:34:05.755Z,1026.27
2018-12-31T04:35:05.748Z,1026.27
2018-12-31T04:36:05.757Z,1026.25
2018-12-31T04:37:05.716Z,1026.27
2018-12-31T04:38:05.711Z,1026.22
2018-12-31T04:39:05.703Z,1026.26
2018-12-31T04:40:05.693Z,1026.24
2018-12-31T04:41:05.693Z,1026.27
2018-12-31T04:42:05.664Z,1026.23
2018-12-31T04:43:05.656Z,1026.23
2018-12-31T04:44:05.645Z,1026.35
2018-12-31T04:45:05.652Z,1026.27
2018-12-31T04:46:05.640Z,1026.31
2018-12-31T04:47:05.619Z,1026.30
2018-12-31T04:48:05.600Z,1026.27
2018-12-31T04:49:05.593Z,1026.29
2018-12-31T04:50:05.586Z,1026.22
2018-12-31T04:51:05.589Z,1026.31
2018-12-31T04:52:05.563Z,1026.32
2018-12-31T04:53:05.548Z,1026.27
2018-12-31T04:54:05.543Z,1026.23
2018-12-31T04:55:05.525Z,1026.24
2018-12-31T04:56:05.536Z,1026.23
2018-12-31T04:57:05.501Z,1026.21
2018-12-31T04:58:05.499Z,1026.21
2018-12-31T04:59:05.487Z,1026.19
2018-12-31T05:00:05.471Z,1026.18
2018-12-31T05:01:05.477Z,1026.18
2018-12-31T05:02:05.463Z,1026.14
2018-12-31T05:03:05.445Z,1026.08
2018-12-31T05:04:05.431Z,1026.07
2018-12-31T05:05:05.424Z,1026.02
2018-12-31T05:06:05.435Z,1026.09
2018-12-31T05:07:05.409Z,1026.08
2018-12-31T05:08:05.396Z,1026.13
2018-12-31T05:09:05.382Z,1026.17
2018-12-31T05:10:05.379Z,1026.18
2018-12-31T05:11:05.379Z,1026.20
2018-12-31T05:12:05.343Z,1026.27
2018-12-31T05:13:05.338Z,1026.26
2018-12-31T05:14:05.324Z,1026.27
2018-12-31T05:15:05.314Z,1026.32
2018-12-31T05:16:05.331Z,1026.34
2018-12-31T05:17:05.299Z,1026.35
2018-12-31T05:18:05.289Z,1026.35
2018-12-31T05:19:05.276Z,1026.33
2018-12-31T05:20:05.268Z,1026.31
2018-12-31T05:21:05.255Z,1026.40
2018-12-31T05:22:05.257Z,1026.43
2018-12-31T05:23:05.408Z,1026.49
2018-12-31T05:24:05.218Z,1026.51
2018-12-31T05:25:05.209Z,1026.61
2018-12-31T05:26:05.199Z,1026.64
2018-12-31T05:27:05.304Z,1026.64
2018-12-31T05:28:05.181Z,1026.66
2018-12-31T05:29:05.168Z,1026.61
2018-12-31T05:30:05.165Z,1026.56
2018-12-31T05:31:05.158Z,1026.56
2018-12-31T05:32:05.152Z,1026.57
2018-12-31T05:33:05.130Z,1026.55
2018-12-31T05:34:05.114Z,1026.54
2018-12-31T05:35:05.101Z,1026.51
2018-12-31T05:36:05.094Z,1026.49
2018-12-31T05:37:05.098Z,1026.53
2018-12-31T05:38:05.072Z,1026.53
2018-12-31T05:39:05.064Z,1026.54
2018-12-31T05:40:05.058Z,1026.55
2018-12-31T05:41:05.041Z,1026.54
2018-12-31T05:42:05.053Z,1026.57
2018-12-31T05:43:05.019Z,1026.54
2018-12-31T05:44:05.010Z,1026.57
2018-12-31T05:45:05.045Z,1026.63
2018-12-31T05:46:04.988Z,1026.58
2018-12-31T05:47:05.001Z,1026.63
2018-12-31T05:48:04.970Z,1026.65
2018-12-31T05:49:04.961Z,1026.55
2018-12-31T05:50:04.942Z,1026.60
2018-12-31T05:51:04.937Z,1026.60
2018-12-31T05:52:04.948Z,1026.62
2018-12-31T05:53:04.914Z,1026.60
2018-12-31T05:54:04.912Z,1026.62
2018-12-31T05:55:04.890Z,1026.62
2018-12-31T05:56:04.878Z,1026.64
2018-12-31T05:57:04.890Z,1026.53
2018-12-31T05:58:04.864Z,1026.55
2018-12-31T05:59:04.854Z,1026.54
2018-12-31T06:00:04.834Z,1026.56
2018-12-31T06:01:04.829Z,1026.57
2018-12-31T06:02:04.846Z,1026.56
2018-12-31T06:03:04.810Z,1026.52
2018-12-31T06:04:04.796Z,1026.56
2018-12-31T06:05:04.786Z,1026.61
2018-12-31T06:06:04.786Z,1026.61
2018-12-31T06:07:04.768Z,1026.54
2018-12-31T06:08:04.770Z,1026.61
2018-12-31T06:09:04.742Z,1026.67
2018-12-31T06:10:04.730Z,1026.60
2018-12-31T06:11:04.724Z,1026.69
2018-12-31T06:12:04.708Z,1026.70
2018-12-31T06:13:04.722Z,1026.66
2018-12-31T06:14:04.690Z,1026.64
2018-12-31T06:15:04.684Z,1026.66
2018-12-31T06:16:04.668Z,1026.71
2018-12-31T06:17:05.268Z,1026.70
2018-12-31T06:18:04.665Z,1026.67
2018-12-31T06:19:04.637Z,1026.72
2018-12-31T06:20:04.625Z,1026.72
2018-12-31T06:21:04.614Z,1026.72
2018-12-31T06:22:04.608Z,1026.77
2018-12-31T06:23:04.614Z,1026.69
2018-12-31T06:24:04.593Z,1026.77
2018-12-31T06:25:04.580Z,1026.78
2018-12-31T06:26:04.561Z,1026.79
2018-12-31T06:27:04.555Z,1026.80
2018-12-31T06:28:04.573Z,1026.84
2018-12-31T06:29:04.557Z,1026.83
2018-12-31T06:30:04.521Z,1026.86
2018-12-31T06:31:04.512Z,1026.80
2018-12-31T06:32:04.501Z,1026.82
2018-12-31T06:33:04.506Z,1026.80
2018-12-31T06:34:04.478Z,1026.83
2018-12-31T06:35:04.469Z,1026.85
2018-12-31T06:36:04.467Z,1026.86
2018-12-31T06:37:04.447Z,1026.91
2018-12-31T06:38:04.459Z,1026.83
2018-12-31T06:39:04.422Z,1026.88
2018-12-31T06:40:04.415Z,1026.87
2018-12-31T06:41:04.401Z,1026.86
2018-12-31T06:42:04.391Z,1026.87
2018-12-31T06:43:04.410Z,1026.81
2018-12-31T06:44:04.382Z,1026.83
2018-12-31T06:45:04.360Z,1026.78
2018-12-31T06:46:04.357Z,1026.84
2018-12-31T06:47:04.337Z,1026.81
2018-12-31T06:48:04.329Z,1026.79
2018-12-31T06:49:04.344Z,1026.76
2018-12-31T06:50:04.309Z,1026.73
2018-12-31T06:51:04.302Z,1026.78
2018-12-31T06:52:04.284Z,1026.77
2018-12-31T06:53:04.275Z,1026.79
2018-12-31T06:54:04.289Z,1026.76
2018-12-31T06:55:04.253Z,1026.77
2018-12-31T06:56:04.239Z,1026.76
2018-12-31T06:57:04.233Z,1026.73
2018-12-31T06:58:04.223Z,1026.76
2018-12-31T06:59:04.228Z,1026.76
2018-12-31T07:00:04.205Z,1026.81
2018-12-31T07:01:04.194Z,1026.80
2018-12-31T07:02:04.174Z,1026.82
2018-12-31T07:03:04.169Z,1026.79
2018-12-31T07:04:04.839Z,1026.81
2018-12-31T07:05:04.145Z,1026.79
2018-12-31T07:06:04.136Z,1026.79
2018-12-31T07:07:04.131Z,1026.83
2018-12-31T07:08:04.112Z,1026.83
2018-12-31T07:09:04.120Z,1026.87
2018-12-31T07:10:04.098Z,1026.87
2018-12-31T07:11:04.082Z,1026.84
2018-12-31T07:12:04.070Z,1026.88
2018-12-31T07:13:04.061Z,1026.86
2018-12-31T07:14:04.067Z,1026.86
2018-12-31T07:15:04.049Z,1026.87
2018-12-31T07:16:04.035Z,1026.92
2018-12-31T07:17:04.030Z,1026.87
2018-12-31T07:18:04.008Z,1026.87
2018-12-31T07:19:04.022Z,1026.81
2018-12-31T07:20:04.007Z,1026.81
2018-12-31T07:21:03.976Z,1026.83
2018-12-31T07:22:03.965Z,1026.91
2018-12-31T07:23:03.954Z,1026.93
2018-12-31T07:24:03.944Z,1026.97
2018-12-31T07:25:03.955Z,1026.95
2018-12-31T07:26:03.930Z,1026.96
2018-12-31T07:27:03.914Z,1026.98
2018-12-31T07:28:03.902Z,1027.02
2018-12-31T07:29:03.899Z,1027.00
2018-12-31T07:30:03.906Z,1027.08
2018-12-31T07:31:03.865Z,1027.08
2018-12-31T07:32:03.859Z,1027.10
2018-12-31T07:33:03.848Z,1027.18
2018-12-31T07:34:03.850Z,1027.13
2018-12-31T07:35:03.841Z,1027.11
2018-12-31T07:36:03.826Z,1027.21
2018-12-31T07:37:03.809Z,1027.19
2018-12-31T07:38:03.801Z,1027.22
2018-12-31T07:39:03.787Z,1027.23
2018-12-31T07:40:03.790Z,1027.25
2018-12-31T07:41:03.765Z,1027.26
2018-12-31T07:42:03.782Z,1027.24
2018-12-31T07:43:03.747Z,1027.21
2018-12-31T07:44:03.736Z,1027.25
2018-12-31T07:45:03.739Z,1027.28
2018-12-31T07:46:03.709Z,1027.32
2018-12-31T07:47:03.699Z,1027.33
2018-12-31T07:48:03.692Z,1027.34
2018-12-31T07:49:03.688Z,1027.35
2018-12-31T07:50:03.684Z,1027.38
2018-12-31T07:51:03.658Z,1027.35
2018-12-31T07:52:03.648Z,1027.33
2018-12-31T07:53:03.638Z,1027.32
2018-12-31T07:54:03.622Z,1027.36
2018-12-31T07:55:03.632Z,1027.33
2018-12-31T07:56:03.604Z,1027.26
2018-12-31T07:57:03.598Z,1027.28
2018-12-31T07:58:03.589Z,1027.27
2018-12-31T07:59:03.600Z,1027.26
2018-12-31T08:00:03.584Z,1027.26
2018-12-31T08:01:03.552Z,1027.23
2018-12-31T08:02:03.538Z,1027.23
2018-12-31T08:03:03.532Z,1027.22
2018-12-31T08:04:03.521Z,1027.25
2018-12-31T08:05:03.535Z,1027.24
2018-12-31T08:06:03.504Z,1027.23
2018-12-31T08:07:03.492Z,1027.22
2018-12-31T08:08:03.478Z,1027.20
2018-12-31T08:09:03.474Z,1027.19
2018-12-31T08:10:03.485Z,1027.23
2018-12-31T08:11:03.443Z,1027.22
2018-12-31T08:12:03.439Z,1027.26
2018-12-31T08:13:03.428Z,1027.26
2018-12-31T08:14:03.412Z,1027.28
2018-12-31T08:15:03.425Z,1027.28
2018-12-31T08:16:03.403Z,1027.29
2018-12-31T08:17:03.411Z,1027.29
2018-12-31T08:18:03.378Z,1027.35
2018-12-31T08:19:03.362Z,1027.36
2018-12-31T08:20:03.346Z,1027.33
2018-12-31T08:21:03.361Z,1027.34
2018-12-31T08:22:03.333Z,1027.40
2018-12-31T08:23:03.321Z,1027.31
2018-12-31T08:24:03.311Z,1027.34
2018-12-31T08:25:03.295Z,1027.33
2018-12-31T08:26:03.302Z,1027.35
2018-12-31T08:27:03.279Z,1027.37
2018-12-31T08:28:03.277Z,1027.37
2018-12-31T08:29:03.257Z,1027.39
2018-12-31T08:30:03.247Z,1027.36
2018-12-31T08:31:03.251Z,1027.39
2018-12-31T08:32:03.225Z,1027.42
2018-12-31T08:33:03.215Z,1027.42
2018-12-31T08:34:03.203Z,1027.41
2018-12-31T08:35:03.195Z,1027.38
2018-12-31T08:36:03.205Z,1027.43
2018-12-31T08:37:03.168Z,1027.44
2018-12-31T08:38:03.158Z,1027.36
2018-12-31T08:39:03.150Z,1027.34
2018-12-31T08:40:03.138Z,1027.39
2018-12-31T08:41:03.146Z,1027.34
2018-12-31T08:42:03.139Z,1027.32
2018-12-31T08:43:03.100Z,1027.39
2018-12-31T08:44:03.097Z,1027.37
2018-12-31T08:45:03.180Z,1027.33
2018-12-31T08:46:03.074Z,1027.35
2018-12-31T08:47:03.079Z,1027.35
2018-12-31T08:48:03.051Z,1027.29
2018-12-31T08:49:03.040Z,1027.30
2018-12-31T08:50:03.452Z,1027.32
2018-12-31T08:51:03.019Z,1027.37
2018-12-31T08:52:03.043Z,1027.37
2018-12-31T08:53:03.050Z,1027.35
2018-12-31T08:54:02.989Z,1027.30
2018-12-31T08:55:02.977Z,1027.37
2018-12-31T08:56:02.963Z,1027.34
2018-12-31T08:57:02.977Z,1027.41
2018-12-31T08:58:02.949Z,1027.34
2018-12-31T08:59:02.932Z,1027.31
2018-12-31T09:00:02.925Z,1027.31
2018-12-31T09:01:02.911Z,1027.30
2018-12-31T09:02:02.940Z,1027.39
2018-12-31T09:03:02.893Z,1027.34
2018-12-31T09:04:02.905Z,1027.33
2018-12-31T09:05:02.871Z,1027.31
2018-12-31T09:06:02.857Z,1027.28
2018-12-31T09:07:02.867Z,1027.26
2018-12-31T09:08:02.836Z,1027.23
2018-12-31T09:09:02.845Z,1027.28
2018-12-31T09:10:02.843Z,1027.25
2018-12-31T09:11:02.913Z,1027.29
2018-12-31T09:12:02.813Z,1027.27
2018-12-31T09:13:02.786Z,1027.27
2018-12-31T09:14:02.783Z,1027.29
2018-12-31T09:15:02.763Z,1027.32
2018-12-31T09:16:02.757Z,1027.30
2018-12-31T09:17:02.930Z,1027.31
2018-12-31T09:18:02.731Z,1027.31
2018-12-31T09:19:02.725Z,1027.32
2018-12-31T09:20:02.715Z,1027.30
2018-12-31T09:21:02.700Z,1027.28
2018-12-31T09:22:02.713Z,1027.36
2018-12-31T09:23:02.677Z,1027.30
2018-12-31T09:24:02.736Z,1027.29
2018-12-31T09:25:02.662Z,1027.27
2018-12-31T09:26:02.657Z,1027.30
2018-12-31T09:27:02.651Z,1027.31
2018-12-31T09:28:03.585Z,1027.29
2018-12-31T09:29:02.623Z,1027.27
2018-12-31T09:30:02.605Z,1027.26
2018-12-31T09:31:02.599Z,1027.23
2018-12-31T09:32:02.613Z,1027.27
2018-12-31T09:33:02.583Z,1027.31
2018-12-31T09:34:02.561Z,1027.25
2018-12-31T09:35:02.559Z,1027.28
2018-12-31T09:36:02.537Z,1027.31
2018-12-31T09:37:02.534Z,1027.29
2018-12-31T09:38:02.545Z,1027.30
2018-12-31T09:39:02.513Z,1027.27
2018-12-31T09:40:02.516Z,1027.22
2018-12-31T09:41:02.493Z,1027.23
2018-12-31T09:42:02.483Z,1027.29
2018-12-31T09:43:02.487Z,1027.30
2018-12-31T09:44:02.459Z,1027.34
2018-12-31T09:45:02.451Z,1027.29
2018-12-31T09:46:02.436Z,1027.38
2018-12-31T09:47:02.423Z,1027.33
2018-12-31T09:48:02.432Z,1027.28
2018-12-31T09:49:02.407Z,1027.32
2018-12-31T09:50:02.395Z,1027.35
2018-12-31T09:51:02.386Z,1027.35
2018-12-31T09:52:02.371Z,1027.37
2018-12-31T09:53:02.381Z,1027.38
2018-12-31T09:54:02.355Z,1027.32
2018-12-31T09:55:02.346Z,1027.36
2018-12-31T09:56:02.340Z,1027.40
2018-12-31T09:57:02.314Z,1027.34
2018-12-31T09:58:02.323Z,1027.31
2018-12-31T09:59:02.300Z,1027.27
2018-12-31T10:00:02.287Z,1027.28
2018-12-31T10:01:02.305Z,1027.21
2018-12-31T10:02:02.275Z,1027.24
2018-12-31T10:03:02.282Z,1027.19
2018-12-31T10:04:02.243Z,1027.17
2018-12-31T10:05:02.230Z,1027.23
2018-12-31T10:06:02.225Z,1027.15
2018-12-31T10:07:02.213Z,1027.22
2018-12-31T10:08:02.204Z,1027.24
2018-12-31T10:09:02.215Z,1027.20
2018-12-31T10:10:02.180Z,1027.17
2018-12-31T10:11:02.170Z,1027.18
2018-12-31T10:12:02.157Z,1027.15
2018-12-31T10:13:02.162Z,1027.19
2018-12-31T10:14:02.158Z,1027.20
2018-12-31T10:15:02.131Z,1027.17
2018-12-31T10:16:02.573Z,1027.21
2018-12-31T10:17:02.107Z,1027.23
2018-12-31T10:18:02.097Z,1027.27
2018-12-31T10:19:02.097Z,1027.22
2018-12-31T10:21:03.065Z,1027.20
2018-12-31T10:22:02.059Z,1027.24
2018-12-31T10:23:02.044Z,1027.26
2018-12-31T10:24:02.375Z,1027.25
2018-12-31T10:25:02.026Z,1027.30
2018-12-31T10:26:02.029Z,1027.24
2018-12-31T10:27:03.526Z,1027.26
2018-12-31T10:28:01.987Z,1027.26
2018-12-31T10:29:02.001Z,1027.24
2018-12-31T10:30:01.966Z,1027.26
2018-12-31T10:31:01.963Z,1027.27
2018-12-31T10:32:01.946Z,1027.26
2018-12-31T10:33:01.941Z,1027.19
2018-12-31T10:34:01.955Z,1027.21
2018-12-31T10:35:01.923Z,1027.16
2018-12-31T10:36:01.905Z,1027.18
2018-12-31T10:37:01.901Z,1027.21
2018-12-31T10:38:01.888Z,1027.16
2018-12-31T10:39:01.868Z,1027.17
2018-12-31T10:40:01.879Z,1027.18
2018-12-31T10:41:01.947Z,1027.21
2018-12-31T10:42:01.844Z,1027.17
2018-12-31T10:43:01.839Z,1027.21
2018-12-31T10:44:01.833Z,1027.21
2018-12-31T10:45:01.831Z,1027.22
2018-12-31T10:46:01.793Z,1027.17
2018-12-31T10:47:01.786Z,1027.19
2018-12-31T10:48:01.781Z,1027.19
2018-12-31T10:49:01.771Z,1027.13
2018-12-31T10:50:01.794Z,1027.15
2018-12-31T10:51:01.745Z,1027.10
2018-12-31T10:52:01.746Z,1027.00
2018-12-31T10:53:01.722Z,1027.09
2018-12-31T10:54:01.711Z,1027.05
2018-12-31T10:55:01.728Z,1027.02
2018-12-31T10:56:01.694Z,1027.02
2018-12-31T10:57:01.680Z,1026.98
2018-12-31T10:58:01.671Z,1027.00
2018-12-31T10:59:01.657Z,1027.00
2018-12-31T11:00:02.045Z,1026.97
2018-12-31T11:01:01.639Z,1026.98
2018-12-31T11:02:01.630Z,1026.92
2018-12-31T11:03:01.620Z,1026.91
2018-12-31T11:04:01.600Z,1026.88
2018-12-31T11:05:01.628Z,1026.86
2018-12-31T11:06:01.598Z,1026.84
2018-12-31T11:07:01.576Z,1026.81
2018-12-31T11:08:01.561Z,1026.80
2018-12-31T11:09:01.564Z,1026.89
2018-12-31T11:10:01.546Z,1026.94
2018-12-31T11:11:01.543Z,1026.93
2018-12-31T11:12:01.536Z,1026.95
2018-12-31T11:13:02.231Z,1026.87
2018-12-31T11:14:01.500Z,1026.87
2018-12-31T11:15:01.506Z,1026.94
2018-12-31T11:16:01.498Z,1026.95
2018-12-31T11:17:01.467Z,1026.98
2018-12-31T11:18:01.466Z,1026.98
2018-12-31T11:19:01.447Z,1026.98
2018-12-31T11:20:01.433Z,1026.97
2018-12-31T11:21:01.456Z,1027.00
2018-12-31T11:22:01.413Z,1026.91
2018-12-31T11:23:01.407Z,1026.92
2018-12-31T11:24:01.423Z,1026.92
2018-12-31T11:25:01.376Z,1026.91
2018-12-31T11:26:01.387Z,1026.90
2018-12-31T11:27:01.399Z,1026.86
2018-12-31T11:28:01.356Z,1026.85
2018-12-31T11:29:01.344Z,1026.84
2018-12-31T11:30:01.329Z,1026.81
2018-12-31T11:31:01.369Z,1026.87
2018-12-31T11:32:01.304Z,1026.75
2018-12-31T11:33:01.294Z,1026.80
2018-12-31T11:34:01.289Z,1026.78
2018-12-31T11:35:01.282Z,1026.82
2018-12-31T11:36:01.262Z,1026.79
2018-12-31T11:37:01.266Z,1026.82
2018-12-31T11:38:01.243Z,1026.81
2018-12-31T11:39:01.231Z,1026.85
2018-12-31T11:40:01.238Z,1026.87
2018-12-31T11:41:01.209Z,1026.88
2018-12-31T11:42:01.210Z,1026.90
2018-12-31T11:43:01.188Z,1026.83
2018-12-31T11:44:01.182Z,1026.86
2018-12-31T11:45:01.170Z,1026.80
2018-12-31T11:46:01.160Z,1026.76
2018-12-31T11:47:01.163Z,1026.80
2018-12-31T11:48:01.130Z,1026.77
2018-12-31T11:49:01.133Z,1026.77
2018-12-31T11:50:01.109Z,1026.71
2018-12-31T11:51:01.099Z,1026.74
2018-12-31T11:52:01.115Z,1026.71
2018-12-31T11:53:01.082Z,1026.68
2018-12-31T11:54:01.068Z,1026.74
2018-12-31T11:55:01.057Z,1026.68
2018-12-31T11:56:01.066Z,1026.66
2018-12-31T11:57:01.079Z,1026.69
2018-12-31T11:58:01.022Z,1026.64
2018-12-31T11:59:01.014Z,1026.67
2018-12-31T12:00:01.003Z,1026.71
2018-12-31T12:01:00.993Z,1026.73
2018-12-31T12:02:01.006Z,1026.75
2018-12-31T12:03:01.020Z,1026.78
2018-12-31T12:04:00.962Z,1026.71
2018-12-31T12:05:00.950Z,1026.74
2018-12-31T12:06:00.939Z,1026.74
2018-12-31T12:07:00.981Z,1026.77